The Highlands, Arkansas
Current Conditions -  °F | °C
As of 3:15 AM on Monday 22 Dec 2014 (Local Time) from KVBT Reporting Station
Overcast Overcast  
Wind Chill: 42°   Ceiling: 800
Heat Index: 45°   Visibility: 8mi
Dew Point: 39°   Wind: 5mph
Humidity: 81%   Direction: 150°SSE
Pressure: 29.7"   Gusts: NA
Location:  36.4745°N, 94.3131°W
Report Text: KVBT 220915Z AUTO 15004KT 8SM OVC008 07/04 A2970 RMK AO1
Loading
Personal Weather Stations






























Interactive Weather Map New forecast layout! Learn more

10-Day Weather Forecast

Advertisements
Track Severe Weather on mobile